sensor_id;sensor_type;location;lat;lon;timestamp;temperature;humidity
8892;DHT22;4482;54.332;10.118;2023-04-15T00:01:37;7.00;99.90
8892;DHT22;4482;54.332;10.118;2023-04-15T00:04:04;7.00;99.90
8892;DHT22;4482;54.332;10.118;2023-04-15T00:06:30;7.00;99.90
8892;DHT22;4482;54.332;10.118;2023-04-15T00:08:57;7.00;99.90
8892;DHT22;4482;54.332;10.118;2023-04-15T00:11:23;7.00;99.90
8892;DHT22;4482;54.332;10.118;2023-04-15T00:13:51;7.00;99.90
8892;DHT22;4482;54.332;10.118;2023-04-15T00:16:18;7.00;99.90
8892;DHT22;4482;54.332;10.118;2023-04-15T00:18:45;7.00;99.90
8892;DHT22;4482;54.332;10.118;2023-04-15T00:21:12;7.00;99.90
8892;DHT22;4482;54.332;10.118;2023-04-15T00:23:38;7.00;99.90
8892;DHT22;4482;54.332;10.118;2023-04-15T00:26:05;7.00;99.90
8892;DHT22;4482;54.332;10.118;2023-04-15T00:28:33;7.10;99.90
8892;DHT22;4482;54.332;10.118;2023-04-15T00:31:01;7.00;99.90
8892;DHT22;4482;54.332;10.118;2023-04-15T00:33:27;7.00;99.90
8892;DHT22;4482;54.332;10.118;2023-04-15T00:35:54;7.00;99.90
8892;DHT22;4482;54.332;10.118;2023-04-15T00:38:21;7.00;99.90
8892;DHT22;4482;54.332;10.118;2023-04-15T00:40:47;7.10;99.90
8892;DHT22;4482;54.332;10.118;2023-04-15T00:43:14;7.10;99.90
8892;DHT22;4482;54.332;10.118;2023-04-15T00:45:40;7.10;99.90
8892;DHT22;4482;54.332;10.118;2023-04-15T00:48:09;7.00;99.90
8892;DHT22;4482;54.332;10.118;2023-04-15T00:50:36;7.10;99.90
8892;DHT22;4482;54.332;10.118;2023-04-15T00:53:02;7.10;99.90
8892;DHT22;4482;54.332;10.118;2023-04-15T00:55:29;7.10;99.90
8892;DHT22;4482;54.332;10.118;2023-04-15T00:57:56;7.10;99.90
8892;DHT22;4482;54.332;10.118;2023-04-15T01:00:23;7.10;99.90
8892;DHT22;4482;54.332;10.118;2023-04-15T01:02:51;7.10;99.90
8892;DHT22;4482;54.332;10.118;2023-04-15T01:05:19;7.10;99.90
8892;DHT22;4482;54.332;10.118;2023-04-15T01:07:45;7.20;99.90
8892;DHT22;4482;54.332;10.118;2023-04-15T01:10:12;7.10;99.90
8892;DHT22;4482;54.332;10.118;2023-04-15T01:12:39;7.10;99.90
8892;DHT22;4482;54.332;10.118;2023-04-15T01:15:06;7.10;99.90
8892;DHT22;4482;54.332;10.118;2023-04-15T01:17:35;7.10;99.90
8892;DHT22;4482;54.332;10.118;2023-04-15T01:20:02;7.10;99.90
8892;DHT22;4482;54.332;10.118;2023-04-15T01:22:30;7.10;99.90
8892;DHT22;4482;54.332;10.118;2023-04-15T01:24:59;7.10;99.90
8892;DHT22;4482;54.332;10.118;2023-04-15T01:27:30;7.20;99.90
8892;DHT22;4482;54.332;10.118;2023-04-15T01:29:57;7.20;99.90
8892;DHT22;4482;54.332;10.118;2023-04-15T01:32:23;7.20;99.90
8892;DHT22;4482;54.332;10.118;2023-04-15T01:34:50;7.20;99.90
8892;DHT22;4482;54.332;10.118;2023-04-15T01:37:17;7.20;99.90
8892;DHT22;4482;54.332;10.118;2023-04-15T01:39:43;7.20;99.90
8892;DHT22;4482;54.332;10.118;2023-04-15T01:42:10;7.20;99.90
8892;DHT22;4482;54.332;10.118;2023-04-15T01:44:38;7.30;99.90
8892;DHT22;4482;54.332;10.118;2023-04-15T01:47:05;7.20;99.90
8892;DHT22;4482;54.332;10.118;2023-04-15T01:49:32;7.30;99.90
8892;DHT22;4482;54.332;10.118;2023-04-15T01:51:59;7.30;99.90
8892;DHT22;4482;54.332;10.118;2023-04-15T01:54:26;7.30;99.90
8892;DHT22;4482;54.332;10.118;2023-04-15T01:56:52;7.30;99.90
8892;DHT22;4482;54.332;10.118;2023-04-15T01:59:19;7.30;99.90
8892;DHT22;4482;54.332;10.118;2023-04-15T02:01:47;7.30;99.90
8892;DHT22;4482;54.332;10.118;2023-04-15T02:04:14;7.30;99.90
8892;DHT22;4482;54.332;10.118;2023-04-15T02:06:42;7.40;99.90
8892;DHT22;4482;54.332;10.118;2023-04-15T02:09:09;7.40;99.90
8892;DHT22;4482;54.332;10.118;2023-04-15T02:11:35;7.40;99.90
8892;DHT22;4482;54.332;10.118;2023-04-15T02:14:03;7.30;99.90
8892;DHT22;4482;54.332;10.118;2023-04-15T02:16:30;7.40;99.90
8892;DHT22;4482;54.332;10.118;2023-04-15T02:18:59;7.40;99.90
8892;DHT22;4482;54.332;10.118;2023-04-15T02:21:26;7.40;99.90
8892;DHT22;4482;54.332;10.118;2023-04-15T02:23:53;7.40;99.90
8892;DHT22;4482;54.332;10.118;2023-04-15T02:26:20;7.30;99.90
8892;DHT22;4482;54.332;10.118;2023-04-15T02:28:47;7.40;99.90
8892;DHT22;4482;54.332;10.118;2023-04-15T02:31:15;7.40;99.90
8892;DHT22;4482;54.332;10.118;2023-04-15T02:33:42;7.40;99.90
8892;DHT22;4482;54.332;10.118;2023-04-15T02:36:10;7.40;99.90
8892;DHT22;4482;54.332;10.118;2023-04-15T02:38:37;7.40;99.90
8892;DHT22;4482;54.332;10.118;2023-04-15T02:41:05;7.40;99.90
8892;DHT22;4482;54.332;10.118;2023-04-15T02:43:31;7.40;99.90
8892;DHT22;4482;54.332;10.118;2023-04-15T02:45:58;7.40;99.90
8892;DHT22;4482;54.332;10.118;2023-04-15T02:48:24;7.40;99.90
8892;DHT22;4482;54.332;10.118;2023-04-15T02:50:51;7.40;99.90
8892;DHT22;4482;54.332;10.118;2023-04-15T02:53:19;7.40;99.90
8892;DHT22;4482;54.332;10.118;2023-04-15T02:55:46;7.50;99.90
8892;DHT22;4482;54.332;10.118;2023-04-15T02:58:13;7.40;99.90
8892;DHT22;4482;54.332;10.118;2023-04-15T03:00:39;7.50;99.90
8892;DHT22;4482;54.332;10.118;2023-04-15T03:03:06;7.40;99.90
8892;DHT22;4482;54.332;10.118;2023-04-15T03:05:33;7.40;99.90
8892;DHT22;4482;54.332;10.118;2023-04-15T03:08:00;7.50;99.90
8892;DHT22;4482;54.332;10.118;2023-04-15T03:10:28;7.50;99.90
8892;DHT22;4482;54.332;10.118;2023-04-15T03:12:55;7.50;99.90
8892;DHT22;4482;54.332;10.118;2023-04-15T03:15:22;7.50;99.90
8892;DHT22;4482;54.332;10.118;2023-04-15T03:17:48;7.50;99.90
8892;DHT22;4482;54.332;10.118;2023-04-15T03:20:15;7.50;99.90
8892;DHT22;4482;54.332;10.118;2023-04-15T03:22:42;7.50;99.90
8892;DHT22;4482;54.332;10.118;2023-04-15T03:25:08;7.50;99.90
8892;DHT22;4482;54.332;10.118;2023-04-15T03:27:37;7.50;99.90
8892;DHT22;4482;54.332;10.118;2023-04-15T03:30:04;7.50;99.90
8892;DHT22;4482;54.332;10.118;2023-04-15T03:32:31;7.50;99.90
8892;DHT22;4482;54.332;10.118;2023-04-15T03:34:57;7.50;99.90
8892;DHT22;4482;54.332;10.118;2023-04-15T03:37:24;7.50;99.90
8892;DHT22;4482;54.332;10.118;2023-04-15T03:39:51;7.50;99.90
8892;DHT22;4482;54.332;10.118;2023-04-15T03:42:18;7.50;99.90
8892;DHT22;4482;54.332;10.118;2023-04-15T03:44:46;7.50;99.90
8892;DHT22;4482;54.332;10.118;2023-04-15T03:47:13;7.50;99.90
8892;DHT22;4482;54.332;10.118;2023-04-15T03:49:39;7.50;99.90
8892;DHT22;4482;54.332;10.118;2023-04-15T03:52:06;7.50;99.90
8892;DHT22;4482;54.332;10.118;2023-04-15T03:54:33;7.60;99.90
8892;DHT22;4482;54.332;10.118;2023-04-15T03:56:59;7.50;99.90
8892;DHT22;4482;54.332;10.118;2023-04-15T03:59:26;7.50;99.90
8892;DHT22;4482;54.332;10.118;2023-04-15T04:01:54;7.50;99.90
8892;DHT22;4482;54.332;10.118;2023-04-15T04:04:21;7.60;99.90
8892;DHT22;4482;54.332;10.118;2023-04-15T04:06:47;7.60;99.90
8892;DHT22;4482;54.332;10.118;2023-04-15T04:09:14;7.60;99.90
8892;DHT22;4482;54.332;10.118;2023-04-15T04:11:41;7.60;99.90
8892;DHT22;4482;54.332;10.118;2023-04-15T04:14:07;7.60;99.90
8892;DHT22;4482;54.332;10.118;2023-04-15T04:16:34;7.70;99.90
8892;DHT22;4482;54.332;10.118;2023-04-15T04:19:02;7.70;99.90
8892;DHT22;4482;54.332;10.118;2023-04-15T04:21:28;7.70;99.90
8892;DHT22;4482;54.332;10.118;2023-04-15T04:23:58;7.70;99.90
8892;DHT22;4482;54.332;10.118;2023-04-15T04:26:24;7.70;99.90
8892;DHT22;4482;54.332;10.118;2023-04-15T04:28:51;7.70;99.90
8892;DHT22;4482;54.332;10.118;2023-04-15T04:31:18;7.70;99.90
8892;DHT22;4482;54.332;10.118;2023-04-15T04:33:45;7.70;99.90
8892;DHT22;4482;54.332;10.118;2023-04-15T04:36:13;7.70;99.90
8892;DHT22;4482;54.332;10.118;2023-04-15T04:38:40;7.70;99.90
8892;DHT22;4482;54.332;10.118;2023-04-15T04:41:06;7.70;99.90
8892;DHT22;4482;54.332;10.118;2023-04-15T04:43:33;7.70;99.90
8892;DHT22;4482;54.332;10.118;2023-04-15T04:45:59;7.70;99.90
8892;DHT22;4482;54.332;10.118;2023-04-15T04:48:26;7.70;99.90
8892;DHT22;4482;54.332;10.118;2023-04-15T04:50:53;7.70;99.90
8892;DHT22;4482;54.332;10.118;2023-04-15T04:53:21;7.80;99.90
8892;DHT22;4482;54.332;10.118;2023-04-15T04:55:48;7.80;99.90
8892;DHT22;4482;54.332;10.118;2023-04-15T04:58:14;7.80;99.90
8892;DHT22;4482;54.332;10.118;2023-04-15T05:00:41;7.80;99.90
8892;DHT22;4482;54.332;10.118;2023-04-15T05:03:07;7.80;99.90
8892;DHT22;4482;54.332;10.118;2023-04-15T05:05:34;7.80;99.90
8892;DHT22;4482;54.332;10.118;2023-04-15T05:08:01;7.80;99.90
8892;DHT22;4482;54.332;10.118;2023-04-15T05:10:29;7.90;99.90
8892;DHT22;4482;54.332;10.118;2023-04-15T05:12:55;7.80;99.90
8892;DHT22;4482;54.332;10.118;2023-04-15T05:15:22;7.90;99.90
8892;DHT22;4482;54.332;10.118;2023-04-15T05:17:49;7.90;99.90
8892;DHT22;4482;54.332;10.118;2023-04-15T05:20:15;7.90;99.90
8892;DHT22;4482;54.332;10.118;2023-04-15T05:22:42;7.90;99.90
8892;DHT22;4482;54.332;10.118;2023-04-15T05:25:09;7.90;99.90
8892;DHT22;4482;54.332;10.118;2023-04-15T05:27:37;7.90;99.90
8892;DHT22;4482;54.332;10.118;2023-04-15T05:30:04;7.90;99.90
8892;DHT22;4482;54.332;10.118;2023-04-15T05:32:31;7.90;99.90
8892;DHT22;4482;54.332;10.118;2023-04-15T05:34:58;7.90;99.90
8892;DHT22;4482;54.332;10.118;2023-04-15T05:37:24;7.80;99.90
8892;DHT22;4482;54.332;10.118;2023-04-15T05:39:51;7.80;99.90
8892;DHT22;4482;54.332;10.118;2023-04-15T05:42:18;7.80;99.90
8892;DHT22;4482;54.332;10.118;2023-04-15T05:44:46;7.80;99.90
8892;DHT22;4482;54.332;10.118;2023-04-15T05:47:12;7.90;99.90
8892;DHT22;4482;54.332;10.118;2023-04-15T05:49:39;7.90;99.90
8892;DHT22;4482;54.332;10.118;2023-04-15T05:52:05;7.90;99.90
8892;DHT22;4482;54.332;10.118;2023-04-15T05:54:32;7.90;99.90
8892;DHT22;4482;54.332;10.118;2023-04-15T05:56:59;7.90;99.90
8892;DHT22;4482;54.332;10.118;2023-04-15T05:59:26;7.90;99.90
8892;DHT22;4482;54.332;10.118;2023-04-15T06:01:54;7.90;99.90
8892;DHT22;4482;54.332;10.118;2023-04-15T06:04:20;7.90;99.90
8892;DHT22;4482;54.332;10.118;2023-04-15T06:06:47;7.90;99.90
8892;DHT22;4482;54.332;10.118;2023-04-15T06:09:14;7.90;99.90
8892;DHT22;4482;54.332;10.118;2023-04-15T06:11:41;7.90;99.90
8892;DHT22;4482;54.332;10.118;2023-04-15T06:14:08;8.00;99.90
8892;DHT22;4482;54.332;10.118;2023-04-15T06:16:34;8.00;99.90
8892;DHT22;4482;54.332;10.118;2023-04-15T06:19:03;8.00;99.90
8892;DHT22;4482;54.332;10.118;2023-04-15T06:21:29;8.00;99.90
8892;DHT22;4482;54.332;10.118;2023-04-15T06:23:57;8.00;99.90
8892;DHT22;4482;54.332;10.118;2023-04-15T06:26:24;8.00;99.90
8892;DHT22;4482;54.332;10.118;2023-04-15T06:28:50;8.00;99.90
8892;DHT22;4482;54.332;10.118;2023-04-15T06:31:17;8.00;99.90
8892;DHT22;4482;54.332;10.118;2023-04-15T06:33:44;8.00;99.90
8892;DHT22;4482;54.332;10.118;2023-04-15T06:36:12;7.90;99.90
8892;DHT22;4482;54.332;10.118;2023-04-15T06:38:39;7.90;99.90
8892;DHT22;4482;54.332;10.118;2023-04-15T06:41:06;7.90;99.90
8892;DHT22;4482;54.332;10.118;2023-04-15T06:43:32;7.80;99.90
8892;DHT22;4482;54.332;10.118;2023-04-15T06:45:59;7.80;99.90
8892;DHT22;4482;54.332;10.118;2023-04-15T06:48:26;7.80;99.90
8892;DHT22;4482;54.332;10.118;2023-04-15T06:50:53;7.80;99.90
8892;DHT22;4482;54.332;10.118;2023-04-15T06:53:21;7.70;99.90
8892;DHT22;4482;54.332;10.118;2023-04-15T06:55:47;7.70;99.90
8892;DHT22;4482;54.332;10.118;2023-04-15T06:58:14;7.80;99.90
8892;DHT22;4482;54.332;10.118;2023-04-15T07:00:41;7.80;99.90
8892;DHT22;4482;54.332;10.118;2023-04-15T07:03:08;7.80;99.90
8892;DHT22;4482;54.332;10.118;2023-04-15T07:05:38;7.80;99.90
8892;DHT22;4482;54.332;10.118;2023-04-15T07:08:05;7.80;99.90
8892;DHT22;4482;54.332;10.118;2023-04-15T07:10:33;7.90;99.90
8892;DHT22;4482;54.332;10.118;2023-04-15T07:13:00;8.00;99.90
8892;DHT22;4482;54.332;10.118;2023-04-15T07:15:27;8.00;99.90
8892;DHT22;4482;54.332;10.118;2023-04-15T07:17:53;8.10;99.90
8892;DHT22;4482;54.332;10.118;2023-04-15T07:20:20;8.10;99.90
8892;DHT22;4482;54.332;10.118;2023-04-15T07:22:47;8.10;99.90
8892;DHT22;4482;54.332;10.118;2023-04-15T07:25:14;8.10;99.90
8892;DHT22;4482;54.332;10.118;2023-04-15T07:27:43;8.10;99.90
8892;DHT22;4482;54.332;10.118;2023-04-15T07:30:10;8.10;99.90
8892;DHT22;4482;54.332;10.118;2023-04-15T07:32:36;8.10;99.90
8892;DHT22;4482;54.332;10.118;2023-04-15T07:35:03;8.20;99.90
8892;DHT22;4482;54.332;10.118;2023-04-15T07:37:30;8.10;99.90
8892;DHT22;4482;54.332;10.118;2023-04-15T07:39:57;8.10;99.90
8892;DHT22;4482;54.332;10.118;2023-04-15T07:42:24;8.10;99.90
8892;DHT22;4482;54.332;10.118;2023-04-15T07:44:52;8.10;99.90
8892;DHT22;4482;54.332;10.118;2023-04-15T07:47:19;8.10;99.90
8892;DHT22;4482;54.332;10.118;2023-04-15T07:49:46;8.20;99.90
8892;DHT22;4482;54.332;10.118;2023-04-15T07:52:12;8.20;99.90
8892;DHT22;4482;54.332;10.118;2023-04-15T07:54:39;8.30;99.90
8892;DHT22;4482;54.332;10.118;2023-04-15T07:57:06;8.40;99.90
8892;DHT22;4482;54.332;10.118;2023-04-15T07:59:33;8.40;99.90
8892;DHT22;4482;54.332;10.118;2023-04-15T08:02:01;8.40;99.90
8892;DHT22;4482;54.332;10.118;2023-04-15T08:04:27;8.50;99.90
8892;DHT22;4482;54.332;10.118;2023-04-15T08:06:54;8.60;99.90
8892;DHT22;4482;54.332;10.118;2023-04-15T08:09:21;8.70;99.90
8892;DHT22;4482;54.332;10.118;2023-04-15T08:11:47;8.80;99.90
8892;DHT22;4482;54.332;10.118;2023-04-15T08:14:15;8.90;99.90
8892;DHT22;4482;54.332;10.118;2023-04-15T08:16:41;8.90;99.90
8892;DHT22;4482;54.332;10.118;2023-04-15T08:19:09;8.90;99.90
8892;DHT22;4482;54.332;10.118;2023-04-15T08:21:36;8.80;99.90
8892;DHT22;4482;54.332;10.118;2023-04-15T08:24:03;8.80;99.90
8892;DHT22;4482;54.332;10.118;2023-04-15T08:26:29;8.80;99.90
8892;DHT22;4482;54.332;10.118;2023-04-15T08:28:56;8.90;99.90
8892;DHT22;4482;54.332;10.118;2023-04-15T08:31:25;8.90;99.90
8892;DHT22;4482;54.332;10.118;2023-04-15T08:33:52;8.90;99.90
8892;DHT22;4482;54.332;10.118;2023-04-15T08:36:22;8.70;99.90
8892;DHT22;4482;54.332;10.118;2023-04-15T08:38:49;8.60;99.90
8892;DHT22;4482;54.332;10.118;2023-04-15T08:41:17;8.60;99.90
8892;DHT22;4482;54.332;10.118;2023-04-15T08:43:48;8.50;99.90
8892;DHT22;4482;54.332;10.118;2023-04-15T08:46:15;8.40;99.90
8892;DHT22;4482;54.332;10.118;2023-04-15T08:48:41;8.40;99.90
8892;DHT22;4482;54.332;10.118;2023-04-15T08:51:09;8.50;99.90
8892;DHT22;4482;54.332;10.118;2023-04-15T08:53:41;8.60;99.90
8892;DHT22;4482;54.332;10.118;2023-04-15T08:56:08;8.60;99.90
8892;DHT22;4482;54.332;10.118;2023-04-15T08:58:36;8.60;99.90
8892;DHT22;4482;54.332;10.118;2023-04-15T09:01:03;8.60;99.90
8892;DHT22;4482;54.332;10.118;2023-04-15T09:03:30;8.70;99.90
8892;DHT22;4482;54.332;10.118;2023-04-15T09:05:57;8.80;99.90
8892;DHT22;4482;54.332;10.118;2023-04-15T09:08:24;8.80;99.90
8892;DHT22;4482;54.332;10.118;2023-04-15T09:10:53;8.80;99.90
8892;DHT22;4482;54.332;10.118;2023-04-15T09:13:20;8.80;99.90
8892;DHT22;4482;54.332;10.118;2023-04-15T09:15:47;8.80;99.90
8892;DHT22;4482;54.332;10.118;2023-04-15T09:18:25;8.80;99.90
8892;DHT22;4482;54.332;10.118;2023-04-15T09:20:52;9.10;99.90
8892;DHT22;4482;54.332;10.118;2023-04-15T09:23:19;9.40;99.90
8892;DHT22;4482;54.332;10.118;2023-04-15T09:25:45;9.70;99.90
8892;DHT22;4482;54.332;10.118;2023-04-15T09:28:14;10.00;99.90
8892;DHT22;4482;54.332;10.118;2023-04-15T09:30:50;10.20;99.90
8892;DHT22;4482;54.332;10.118;2023-04-15T09:33:17;10.60;99.90
8892;DHT22;4482;54.332;10.118;2023-04-15T09:35:47;10.90;99.90
8892;DHT22;4482;54.332;10.118;2023-04-15T09:38:21;11.20;99.90
8892;DHT22;4482;54.332;10.118;2023-04-15T09:40:47;11.60;99.90
8892;DHT22;4482;54.332;10.118;2023-04-15T09:43:15;11.70;99.90
8892;DHT22;4482;54.332;10.118;2023-04-15T09:45:46;11.50;99.90
8892;DHT22;4482;54.332;10.118;2023-04-15T09:48:16;11.30;99.90
8892;DHT22;4482;54.332;10.118;2023-04-15T09:50:43;11.30;99.90
8892;DHT22;4482;54.332;10.118;2023-04-15T09:53:10;11.10;99.90
8892;DHT22;4482;54.332;10.118;2023-04-15T09:55:37;11.20;99.90
8892;DHT22;4482;54.332;10.118;2023-04-15T09:58:07;11.20;99.90
8892;DHT22;4482;54.332;10.118;2023-04-15T10:00:35;11.10;99.90
8892;DHT22;4482;54.332;10.118;2023-04-15T10:03:03;10.90;99.90
8892;DHT22;4482;54.332;10.118;2023-04-15T10:05:31;10.70;99.90
8892;DHT22;4482;54.332;10.118;2023-04-15T10:07:58;10.80;99.90
8892;DHT22;4482;54.332;10.118;2023-04-15T10:10:25;11.00;99.90
8892;DHT22;4482;54.332;10.118;2023-04-15T10:12:52;11.30;99.90
8892;DHT22;4482;54.332;10.118;2023-04-15T10:15:19;11.30;99.90
8892;DHT22;4482;54.332;10.118;2023-04-15T10:17:48;11.50;99.90
8892;DHT22;4482;54.332;10.118;2023-04-15T10:20:16;12.40;99.90
8892;DHT22;4482;54.332;10.118;2023-04-15T10:22:43;13.30;99.90
8892;DHT22;4482;54.332;10.118;2023-04-15T10:25:10;13.30;99.90
8892;DHT22;4482;54.332;10.118;2023-04-15T10:27:38;12.90;99.90
8892;DHT22;4482;54.332;10.118;2023-04-15T10:30:06;12.60;99.90
8892;DHT22;4482;54.332;10.118;2023-04-15T10:32:33;12.80;99.90
8892;DHT22;4482;54.332;10.118;2023-04-15T10:35:02;13.40;99.90
8892;DHT22;4482;54.332;10.118;2023-04-15T10:37:32;13.50;99.90
8892;DHT22;4482;54.332;10.118;2023-04-15T10:39:59;13.50;99.90
8892;DHT22;4482;54.332;10.118;2023-04-15T10:42:33;13.10;99.90
8892;DHT22;4482;54.332;10.118;2023-04-15T10:44:59;12.70;99.90
8892;DHT22;4482;54.332;10.118;2023-04-15T10:47:26;13.00;99.90
8892;DHT22;4482;54.332;10.118;2023-04-15T10:49:56;13.30;99.90
8892;DHT22;4482;54.332;10.118;2023-04-15T10:52:25;13.60;99.90
8892;DHT22;4482;54.332;10.118;2023-04-15T10:55:00;13.50;99.90
8892;DHT22;4482;54.332;10.118;2023-04-15T10:57:27;13.40;99.90
8892;DHT22;4482;54.332;10.118;2023-04-15T11:00:01;13.30;99.90
8892;DHT22;4482;54.332;10.118;2023-04-15T11:02:38;13.20;99.90
8892;DHT22;4482;54.332;10.118;2023-04-15T11:05:06;12.80;99.90
8892;DHT22;4482;54.332;10.118;2023-04-15T11:07:37;12.80;99.90
8892;DHT22;4482;54.332;10.118;2023-04-15T11:12:46;12.90;99.90
8892;DHT22;4482;54.332;10.118;2023-04-15T11:15:26;12.70;99.90
8892;DHT22;4482;54.332;10.118;2023-04-15T11:17:54;12.50;99.90
8892;DHT22;4482;54.332;10.118;2023-04-15T11:20:21;12.60;99.90
8892;DHT22;4482;54.332;10.118;2023-04-15T11:22:49;12.70;99.90
8892;DHT22;4482;54.332;10.118;2023-04-15T11:25:21;12.60;99.90
8892;DHT22;4482;54.332;10.118;2023-04-15T11:27:47;12.40;99.90
8892;DHT22;4482;54.332;10.118;2023-04-15T11:30:18;12.20;99.90
8892;DHT22;4482;54.332;10.118;2023-04-15T11:32:45;12.00;99.90
8892;DHT22;4482;54.332;10.118;2023-04-15T11:35:12;12.00;99.90
8892;DHT22;4482;54.332;10.118;2023-04-15T11:37:38;11.80;99.90
8892;DHT22;4482;54.332;10.118;2023-04-15T11:40:07;11.70;99.90
8892;DHT22;4482;54.332;10.118;2023-04-15T11:42:34;11.60;99.90
8892;DHT22;4482;54.332;10.118;2023-04-15T11:45:07;11.80;99.90
8892;DHT22;4482;54.332;10.118;2023-04-15T11:47:34;11.80;99.90
8892;DHT22;4482;54.332;10.118;2023-04-15T11:50:13;11.90;99.90
8892;DHT22;4482;54.332;10.118;2023-04-15T11:52:40;11.70;99.90
8892;DHT22;4482;54.332;10.118;2023-04-15T11:55:08;11.70;99.90
8892;DHT22;4482;54.332;10.118;2023-04-15T11:57:35;11.60;99.90
8892;DHT22;4482;54.332;10.118;2023-04-15T12:00:02;11.50;99.90
8892;DHT22;4482;54.332;10.118;2023-04-15T12:02:30;11.60;99.90
8892;DHT22;4482;54.332;10.118;2023-04-15T12:05:01;11.60;99.90
8892;DHT22;4482;54.332;10.118;2023-04-15T12:07:29;11.60;99.90
8892;DHT22;4482;54.332;10.118;2023-04-15T12:09:56;11.50;99.90
8892;DHT22;4482;54.332;10.118;2023-04-15T12:12:27;11.50;99.90
8892;DHT22;4482;54.332;10.118;2023-04-15T12:14:55;11.50;99.90
8892;DHT22;4482;54.332;10.118;2023-04-15T12:17:22;11.40;99.90
8892;DHT22;4482;54.332;10.118;2023-04-15T12:19:54;11.50;99.90
8892;DHT22;4482;54.332;10.118;2023-04-15T12:22:21;11.60;99.90
8892;DHT22;4482;54.332;10.118;2023-04-15T12:24:53;11.70;99.90
8892;DHT22;4482;54.332;10.118;2023-04-15T12:27:24;11.80;99.90
8892;DHT22;4482;54.332;10.118;2023-04-15T12:29:56;11.90;99.90
8892;DHT22;4482;54.332;10.118;2023-04-15T12:32:28;11.80;99.90
8892;DHT22;4482;54.332;10.118;2023-04-15T12:34:55;11.80;99.90
8892;DHT22;4482;54.332;10.118;2023-04-15T12:37:22;11.70;99.90
8892;DHT22;4482;54.332;10.118;2023-04-15T12:39:50;11.70;99.90
8892;DHT22;4482;54.332;10.118;2023-04-15T12:42:18;11.70;99.90
8892;DHT22;4482;54.332;10.118;2023-04-15T12:44:44;11.90;99.90
8892;DHT22;4482;54.332;10.118;2023-04-15T12:47:12;11.90;99.90
8892;DHT22;4482;54.332;10.118;2023-04-15T12:49:39;11.90;99.90
8892;DHT22;4482;54.332;10.118;2023-04-15T12:52:06;11.90;99.90
8892;DHT22;4482;54.332;10.118;2023-04-15T12:54:33;12.00;99.90
8892;DHT22;4482;54.332;10.118;2023-04-15T12:57:00;12.10;99.90
8892;DHT22;4482;54.332;10.118;2023-04-15T12:59:27;12.10;99.90
8892;DHT22;4482;54.332;10.118;2023-04-15T13:01:54;12.20;99.90
8892;DHT22;4482;54.332;10.118;2023-04-15T13:04:22;12.20;99.90
8892;DHT22;4482;54.332;10.118;2023-04-15T13:06:49;12.20;99.90
8892;DHT22;4482;54.332;10.118;2023-04-15T13:09:15;12.10;99.90
8892;DHT22;4482;54.332;10.118;2023-04-15T13:11:42;12.10;99.90
8892;DHT22;4482;54.332;10.118;2023-04-15T13:14:09;12.10;99.90
8892;DHT22;4482;54.332;10.118;2023-04-15T13:16:37;12.10;99.90
8892;DHT22;4482;54.332;10.118;2023-04-15T13:19:03;12.10;99.90
8892;DHT22;4482;54.332;10.118;2023-04-15T13:21:32;12.10;99.90
8892;DHT22;4482;54.332;10.118;2023-04-15T13:23:59;12.00;99.90
8892;DHT22;4482;54.332;10.118;2023-04-15T13:26:26;11.90;99.90
8892;DHT22;4482;54.332;10.118;2023-04-15T13:28:53;11.80;99.90
8892;DHT22;4482;54.332;10.118;2023-04-15T13:31:20;11.70;99.90
8892;DHT22;4482;54.332;10.118;2023-04-15T13:33:47;11.70;99.90
8892;DHT22;4482;54.332;10.118;2023-04-15T13:36:13;11.70;99.90
8892;DHT22;4482;54.332;10.118;2023-04-15T13:38:42;11.90;99.90
8892;DHT22;4482;54.332;10.118;2023-04-15T13:41:08;12.00;99.90
8892;DHT22;4482;54.332;10.118;2023-04-15T13:43:35;12.00;99.90
8892;DHT22;4482;54.332;10.118;2023-04-15T13:46:01;12.00;99.90
8892;DHT22;4482;54.332;10.118;2023-04-15T13:48:28;12.10;99.90
8892;DHT22;4482;54.332;10.118;2023-04-15T13:50:55;12.10;99.90
8892;DHT22;4482;54.332;10.118;2023-04-15T13:53:21;11.90;99.90
8892;DHT22;4482;54.332;10.118;2023-04-15T13:55:49;11.70;99.90
8892;DHT22;4482;54.332;10.118;2023-04-15T13:58:16;11.60;99.90
8892;DHT22;4482;54.332;10.118;2023-04-15T14:00:43;11.40;99.90
8892;DHT22;4482;54.332;10.118;2023-04-15T14:03:09;11.50;99.90
8892;DHT22;4482;54.332;10.118;2023-04-15T14:05:36;11.80;99.90
8892;DHT22;4482;54.332;10.118;2023-04-15T14:08:03;11.90;99.90
8892;DHT22;4482;54.332;10.118;2023-04-15T14:10:29;12.00;99.90
8892;DHT22;4482;54.332;10.118;2023-04-15T14:12:57;11.90;99.90
8892;DHT22;4482;54.332;10.118;2023-04-15T14:15:24;11.80;99.90
8892;DHT22;4482;54.332;10.118;2023-04-15T14:17:51;11.80;99.90
8892;DHT22;4482;54.332;10.118;2023-04-15T14:20:17;11.70;99.90
8892;DHT22;4482;54.332;10.118;2023-04-15T14:22:44;11.70;99.90
8892;DHT22;4482;54.332;10.118;2023-04-15T14:25:11;11.80;99.90
8892;DHT22;4482;54.332;10.118;2023-04-15T14:27:37;11.70;99.90
8892;DHT22;4482;54.332;10.118;2023-04-15T14:30:06;11.70;99.90
8892;DHT22;4482;54.332;10.118;2023-04-15T14:32:33;11.70;99.90
8892;DHT22;4482;54.332;10.118;2023-04-15T14:35:00;11.70;99.90
8892;DHT22;4482;54.332;10.118;2023-04-15T14:37:27;11.60;99.90
8892;DHT22;4482;54.332;10.118;2023-04-15T14:39:53;11.60;99.90
8892;DHT22;4482;54.332;10.118;2023-04-15T14:42:20;11.60;99.90
8892;DHT22;4482;54.332;10.118;2023-04-15T14:44:47;11.70;99.90
8892;DHT22;4482;54.332;10.118;2023-04-15T14:47:15;11.80;99.90
8892;DHT22;4482;54.332;10.118;2023-04-15T14:49:42;11.90;99.90
8892;DHT22;4482;54.332;10.118;2023-04-15T14:52:08;11.80;99.90
8892;DHT22;4482;54.332;10.118;2023-04-15T14:54:35;11.80;99.90
8892;DHT22;4482;54.332;10.118;2023-04-15T14:57:02;11.90;99.90
8892;DHT22;4482;54.332;10.118;2023-04-15T14:59:28;11.80;99.90
8892;DHT22;4482;54.332;10.118;2023-04-15T15:01:55;11.80;99.90
8892;DHT22;4482;54.332;10.118;2023-04-15T15:04:23;11.70;99.90
8892;DHT22;4482;54.332;10.118;2023-04-15T15:06:50;11.60;99.90
8892;DHT22;4482;54.332;10.118;2023-04-15T15:09:16;11.50;99.90
8892;DHT22;4482;54.332;10.118;2023-04-15T15:11:44;11.40;99.90
8892;DHT22;4482;54.332;10.118;2023-04-15T15:14:10;11.30;99.90
8892;DHT22;4482;54.332;10.118;2023-04-15T15:16:37;11.30;99.90
8892;DHT22;4482;54.332;10.118;2023-04-15T15:19:04;11.30;99.90
8892;DHT22;4482;54.332;10.118;2023-04-15T15:21:32;11.20;99.90
8892;DHT22;4482;54.332;10.118;2023-04-15T15:23:58;11.10;99.90
8892;DHT22;4482;54.332;10.118;2023-04-15T15:26:25;11.00;99.90
8892;DHT22;4482;54.332;10.118;2023-04-15T15:28:52;10.90;99.90
8892;DHT22;4482;54.332;10.118;2023-04-15T15:31:19;10.80;99.90
8892;DHT22;4482;54.332;10.118;2023-04-15T15:33:45;10.70;99.90
8892;DHT22;4482;54.332;10.118;2023-04-15T15:36:12;10.70;99.90
8892;DHT22;4482;54.332;10.118;2023-04-15T15:38:40;10.60;99.90
8892;DHT22;4482;54.332;10.118;2023-04-15T15:41:07;10.50;99.90
8892;DHT22;4482;54.332;10.118;2023-04-15T15:43:33;10.60;99.90
8892;DHT22;4482;54.332;10.118;2023-04-15T15:46:00;10.50;99.90
8892;DHT22;4482;54.332;10.118;2023-04-15T15:48:27;10.50;99.90
8892;DHT22;4482;54.332;10.118;2023-04-15T15:50:53;10.60;99.90
8892;DHT22;4482;54.332;10.118;2023-04-15T15:53:20;10.60;99.90
8892;DHT22;4482;54.332;10.118;2023-04-15T15:55:50;10.60;99.90
8892;DHT22;4482;54.332;10.118;2023-04-15T15:58:16;10.60;99.90